createdAt,value
2022-09-11T00:01:07.425Z,14.2
2022-09-11T00:02:23.716Z,14.2
2022-09-11T00:04:56.299Z,14.2
2022-09-11T00:06:12.610Z,14.2
2022-09-11T00:07:28.890Z,14.2
2022-09-11T00:08:45.199Z,14.2
2022-09-11T00:10:01.474Z,14.2
2022-09-11T00:11:17.785Z,14.2
2022-09-11T00:12:33.077Z,14.3
2022-09-11T00:13:49.378Z,14.2
2022-09-11T00:15:05.674Z,14.2
2022-09-11T00:16:21.961Z,14.2
2022-09-11T00:17:38.273Z,14.2
2022-09-11T00:18:54.553Z,14.3
2022-09-11T00:20:10.862Z,14.2
2022-09-11T00:21:27.158Z,14.3
2022-09-11T00:22:43.438Z,14.3
2022-09-11T00:23:59.737Z,14.3
2022-09-11T00:25:16.023Z,14.2
2022-09-11T00:26:32.324Z,14.2
2022-09-11T00:27:48.610Z,14.2
2022-09-11T00:29:03.936Z,14.3
2022-09-11T00:30:20.214Z,14.2
2022-09-11T00:31:36.526Z,14.2
2022-09-11T00:32:52.808Z,14.2
2022-09-11T00:34:09.097Z,14.2
2022-09-11T00:35:25.399Z,14.2
2022-09-11T00:36:41.693Z,14.2
2022-09-11T00:37:57.988Z,14.2
2022-09-11T00:39:14.282Z,14.2
2022-09-11T00:40:30.571Z,14.2
2022-09-11T00:41:46.871Z,14.2
2022-09-11T00:43:03.160Z,14.2
2022-09-11T00:44:19.450Z,14.2
2022-09-11T00:45:34.772Z,14.2
2022-09-11T00:46:51.061Z,14.1
2022-09-11T00:48:07.361Z,14.1
2022-09-11T00:49:23.659Z,14.1
2022-09-11T00:50:39.948Z,14.1
2022-09-11T00:51:56.236Z,14.1
2022-09-11T00:53:12.530Z,14.1
2022-09-11T00:54:28.832Z,14.1
2022-09-11T00:55:45.113Z,14.1
2022-09-11T00:57:01.408Z,14.1
2022-09-11T00:58:17.701Z,14.1
2022-09-11T00:59:34.005Z,14
2022-09-11T01:00:50.295Z,14.1
2022-09-11T01:02:05.606Z,14.1
2022-09-11T01:03:21.897Z,14.1
2022-09-11T01:04:38.205Z,14.1
2022-09-11T01:05:54.488Z,14.1
2022-09-11T01:07:10.776Z,14.1
2022-09-11T01:08:27.070Z,14.1
2022-09-11T01:09:43.368Z,14.1
2022-09-11T01:10:59.670Z,14.1
2022-09-11T01:12:15.968Z,14.1
2022-09-11T01:13:32.251Z,14.1
2022-09-11T01:14:48.551Z,14.1
2022-09-11T01:16:04.844Z,14.1
2022-09-11T01:17:21.140Z,14.1
2022-09-11T01:18:37.423Z,14.1
2022-09-11T01:19:53.735Z,14
2022-09-11T01:21:09.040Z,14.1
2022-09-11T01:22:25.334Z,14
2022-09-11T01:23:41.628Z,14.1
2022-09-11T01:24:57.922Z,14
2022-09-11T01:26:14.210Z,14
2022-09-11T01:27:30.501Z,14
2022-09-11T01:28:46.812Z,14
2022-09-11T01:30:03.102Z,14
2022-09-11T01:31:19.396Z,14
2022-09-11T01:32:35.689Z,14
2022-09-11T01:33:51.979Z,14
2022-09-11T01:35:08.272Z,14
2022-09-11T01:36:24.564Z,14
2022-09-11T01:37:39.875Z,14
2022-09-11T01:38:56.176Z,14
2022-09-11T01:40:12.466Z,14
2022-09-11T01:41:28.763Z,14
2022-09-11T01:44:01.357Z,14
2022-09-11T01:45:17.635Z,14
2022-09-11T01:46:33.926Z,14
2022-09-11T01:47:50.230Z,14
2022-09-11T01:49:06.534Z,14
2022-09-11T01:50:22.823Z,13.9
2022-09-11T01:51:39.107Z,13.9
2022-09-11T01:54:11.701Z,14
2022-09-11T01:55:27.999Z,13.9
2022-09-11T01:56:44.294Z,13.9
2022-09-11T01:58:00.578Z,13.9
2022-09-11T01:59:15.895Z,13.9
2022-09-11T02:00:32.193Z,13.9
2022-09-11T02:01:48.481Z,13.9
2022-09-11T02:03:04.775Z,13.9
2022-09-11T02:04:21.079Z,13.9
2022-09-11T02:06:53.656Z,13.9
2022-09-11T02:08:09.956Z,13.9
2022-09-11T02:09:25.271Z,13.9
2022-09-11T02:10:40.591Z,13.9
2022-09-11T02:11:56.869Z,13.8
2022-09-11T02:13:13.167Z,13.9
2022-09-11T02:14:29.458Z,13.9
2022-09-11T02:15:45.767Z,13.9
2022-09-11T02:17:02.062Z,13.8
2022-09-11T02:18:18.335Z,13.9
2022-09-11T02:19:34.639Z,13.9
2022-09-11T02:22:07.229Z,13.8
2022-09-11T02:23:23.521Z,13.8
2022-09-11T02:24:39.822Z,13.8
2022-09-11T02:25:56.109Z,13.8
2022-09-11T02:27:12.408Z,13.8
2022-09-11T02:28:27.724Z,13.7
2022-09-11T02:29:44.017Z,13.8
2022-09-11T02:31:00.309Z,13.8
2022-09-11T02:32:16.591Z,13.7
2022-09-11T02:33:32.898Z,13.7
2022-09-11T02:34:49.187Z,13.7
2022-09-11T02:36:05.476Z,13.7
2022-09-11T02:37:21.771Z,13.7
2022-09-11T02:38:37.083Z,13.7
2022-09-11T02:39:52.400Z,13.7
2022-09-11T02:41:08.693Z,13.7
2022-09-11T02:42:24.992Z,13.7
2022-09-11T02:44:57.585Z,13.6
2022-09-11T02:46:13.873Z,13.6
2022-09-11T02:47:30.167Z,13.6
2022-09-11T02:48:46.469Z,13.6
2022-09-11T02:50:02.757Z,13.6
2022-09-11T02:52:35.347Z,13.5
2022-09-11T02:53:51.635Z,13.5
2022-09-11T02:55:06.942Z,13.5
2022-09-11T02:56:22.267Z,13.5
2022-09-11T02:57:38.562Z,13.5
2022-09-11T02:58:54.843Z,13.5
2022-09-11T03:00:11.141Z,13.5
2022-09-11T03:01:27.435Z,13.5
2022-09-11T03:02:43.730Z,13.5
2022-09-11T03:04:00.023Z,13.5
2022-09-11T03:05:16.316Z,13.5
2022-09-11T03:06:32.614Z,13.5
2022-09-11T03:07:48.908Z,13.4
2022-09-11T03:09:04.220Z,13.4
2022-09-11T03:10:19.527Z,13.4
2022-09-11T03:11:35.826Z,13.4
2022-09-11T03:12:52.127Z,13.4
2022-09-11T03:14:08.420Z,13.4
2022-09-11T03:15:24.700Z,13.4
2022-09-11T03:16:41.003Z,13.4
2022-09-11T03:17:56.313Z,13.3
2022-09-11T03:19:12.615Z,13.4
2022-09-11T03:20:28.905Z,13.3
2022-09-11T03:21:45.205Z,13.3
2022-09-11T03:23:01.506Z,13.3
2022-09-11T03:24:17.787Z,13.3
2022-09-11T03:25:34.075Z,13.3
2022-09-11T03:26:50.384Z,13.3
2022-09-11T03:28:06.669Z,13.3
2022-09-11T03:29:22.968Z,13.3
2022-09-11T03:30:39.262Z,13.2
2022-09-11T03:31:55.550Z,13.2
2022-09-11T03:33:11.843Z,13.2
2022-09-11T03:34:27.167Z,13.3
2022-09-11T03:35:43.455Z,13.2
2022-09-11T03:38:16.045Z,13.2
2022-09-11T03:39:32.336Z,13.2
2022-09-11T03:40:48.628Z,13.2
2022-09-11T03:42:04.922Z,13.2
2022-09-11T03:43:21.223Z,13.2
2022-09-11T03:44:37.502Z,13.2
2022-09-11T03:45:53.808Z,13.2
2022-09-11T03:47:10.093Z,13.2
2022-09-11T03:48:26.399Z,13.2
2022-09-11T03:49:42.690Z,13.1
2022-09-11T03:50:58.005Z,13.2
2022-09-11T03:52:14.286Z,13.2
2022-09-11T03:53:30.591Z,13.1
2022-09-11T03:54:46.884Z,13.2
2022-09-11T03:56:03.185Z,13.2
2022-09-11T03:57:19.469Z,13.1
2022-09-11T03:58:35.773Z,13.1
2022-09-11T03:59:52.055Z,13.2
2022-09-11T04:01:08.347Z,13.1
2022-09-11T04:02:24.594Z,13.1
2022-09-11T04:03:40.891Z,13.1
2022-09-11T04:04:57.143Z,13.1
2022-09-11T04:06:13.376Z,13.1
2022-09-11T04:07:28.642Z,13.1
2022-09-11T04:08:44.876Z,13.1
2022-09-11T04:10:01.112Z,13.2
2022-09-11T04:11:17.358Z,13.2
2022-09-11T04:12:33.612Z,13.1
2022-09-11T04:13:49.000Z,13.1
2022-09-11T04:15:06.077Z,13.1
2022-09-11T04:16:22.320Z,13.1
2022-09-11T04:17:38.564Z,13.1
2022-09-11T04:18:54.808Z,13.2
2022-09-11T04:20:11.049Z,13.2
2022-09-11T04:21:27.295Z,13.2
2022-09-11T04:22:43.532Z,13.2
2022-09-11T04:23:59.770Z,13.2
2022-09-11T04:25:15.023Z,13.2
2022-09-11T04:26:31.254Z,13.2
2022-09-11T04:27:47.509Z,13.2
2022-09-11T04:29:03.751Z,13.3
2022-09-11T04:31:36.234Z,13.3
2022-09-11T04:32:52.460Z,13.3
2022-09-11T04:34:08.709Z,13.3
2022-09-11T04:35:24.938Z,13.3
2022-09-11T04:36:41.178Z,13.3
2022-09-11T04:37:57.419Z,13.3
2022-09-11T04:39:13.672Z,13.3
2022-09-11T04:40:29.899Z,13.3
2022-09-11T04:41:45.154Z,13.4
2022-09-11T04:43:01.388Z,13.4
2022-09-11T04:44:17.643Z,13.4
2022-09-11T04:46:50.106Z,13.4
2022-09-11T04:48:06.365Z,13.4
2022-09-11T04:49:22.591Z,13.4
2022-09-11T04:50:38.838Z,13.4
2022-09-11T04:51:55.071Z,13.5
2022-09-11T04:53:11.306Z,13.5
2022-09-11T04:54:27.552Z,13.5
2022-09-11T04:55:43.790Z,13.5
2022-09-11T04:57:00.038Z,13.5
2022-09-11T04:58:15.296Z,13.5
2022-09-11T04:59:31.537Z,13.5
2022-09-11T05:02:04.006Z,13.5
2022-09-11T05:03:20.245Z,13.5
2022-09-11T05:04:36.493Z,13.5
2022-09-11T05:05:52.743Z,13.5
2022-09-11T05:07:08.967Z,13.5
2022-09-11T05:09:41.462Z,13.5
2022-09-11T05:10:56.711Z,13.5
2022-09-11T05:12:11.984Z,13.5
2022-09-11T05:13:28.222Z,13.5
2022-09-11T05:14:44.451Z,13.5
2022-09-11T05:16:00.699Z,13.5
2022-09-11T05:17:16.939Z,13.5
2022-09-11T05:18:33.171Z,13.5
2022-09-11T05:19:49.405Z,13.5
2022-09-11T05:21:05.647Z,13.6
2022-09-11T05:22:21.898Z,13.6
2022-09-11T05:24:54.371Z,13.6
2022-09-11T05:26:10.614Z,13.6
2022-09-11T05:27:26.851Z,13.6
2022-09-11T05:29:58.350Z,13.6
2022-09-11T05:32:30.839Z,13.7
2022-09-11T05:33:47.080Z,13.7
2022-09-11T05:35:02.336Z,13.6
2022-09-11T05:36:17.592Z,13.7
2022-09-11T05:37:33.823Z,13.7
2022-09-11T05:40:06.303Z,13.6
2022-09-11T05:41:22.559Z,13.6
2022-09-11T05:42:38.790Z,13.6
2022-09-11T05:43:55.031Z,13.6
2022-09-11T05:45:11.264Z,13.7
2022-09-11T05:47:43.750Z,13.7
2022-09-11T05:48:59.990Z,13.7
2022-09-11T05:50:16.222Z,13.7
2022-09-11T05:51:32.463Z,13.8
2022-09-11T05:52:47.738Z,13.8
2022-09-11T05:54:03.962Z,13.9
2022-09-11T05:55:20.200Z,13.9
2022-09-11T05:56:36.440Z,13.9
2022-09-11T05:57:52.688Z,13.9
2022-09-11T05:59:08.924Z,13.9
2022-09-11T06:00:25.177Z,13.9
2022-09-11T06:01:41.000Z,13.9
2022-09-11T06:02:57.642Z,14
2022-09-11T06:04:13.881Z,13.9
2022-09-11T06:05:30.128Z,14
2022-09-11T06:06:45.386Z,14
2022-09-11T06:08:01.631Z,14
2022-09-11T06:09:16.878Z,14
2022-09-11T06:10:33.129Z,14
2022-09-11T06:11:49.366Z,14.1
2022-09-11T06:13:05.600Z,14.2
2022-09-11T06:14:21.840Z,14.3
2022-09-11T06:15:38.089Z,14.3
2022-09-11T06:16:54.332Z,14.4
2022-09-11T06:18:10.576Z,14.4
2022-09-11T06:19:26.817Z,14.4
2022-09-11T06:20:42.075Z,14.5
2022-09-11T06:21:57.333Z,14.4
2022-09-11T06:23:13.567Z,14.5
2022-09-11T06:24:29.800Z,14.5
2022-09-11T06:25:46.041Z,14.5
2022-09-11T06:27:02.291Z,14.5
2022-09-11T06:28:18.528Z,14.5
2022-09-11T06:29:34.773Z,14.5
2022-09-11T06:30:51.003Z,14.5
2022-09-11T06:33:23.492Z,14.5
2022-09-11T06:34:39.722Z,14.5
2022-09-11T06:35:55.967Z,14.4
2022-09-11T06:37:12.220Z,14.4
2022-09-11T06:38:27.461Z,14.4
2022-09-11T06:40:59.945Z,14.3
2022-09-11T06:42:15.215Z,14.2
2022-09-11T06:43:30.463Z,14.2
2022-09-11T06:44:46.694Z,14.2
2022-09-11T06:46:02.938Z,14.2
2022-09-11T06:47:19.175Z,14.2
2022-09-11T06:48:35.415Z,14.2
2022-09-11T06:49:51.666Z,14.1
2022-09-11T06:51:07.911Z,14.1
2022-09-11T06:52:24.142Z,14.1
2022-09-11T06:53:40.390Z,14.1
2022-09-11T06:54:56.616Z,14.1
2022-09-11T06:56:11.879Z,14.1
2022-09-11T06:57:27.149Z,14.2
2022-09-11T06:58:43.380Z,14.1
2022-09-11T06:59:59.612Z,14.1
2022-09-11T07:01:15.871Z,14.1
2022-09-11T07:03:48.337Z,14.2
2022-09-11T07:05:04.575Z,14.2
2022-09-11T07:06:20.813Z,14.2
2022-09-11T07:07:37.054Z,14.2
2022-09-11T07:08:53.304Z,14.2
2022-09-11T07:11:25.777Z,14.2
2022-09-11T07:12:41.056Z,14.2
2022-09-11T07:13:56.294Z,14.2
2022-09-11T07:15:12.540Z,14.3
2022-09-11T07:16:28.792Z,14.3
2022-09-11T07:17:45.022Z,14.2
2022-09-11T07:19:01.264Z,14.3
2022-09-11T07:20:17.497Z,14.3
2022-09-11T07:21:33.738Z,14.3
2022-09-11T07:22:49.981Z,14.3
2022-09-11T07:24:06.224Z,14.3
2022-09-11T07:25:22.471Z,14.3
2022-09-11T07:26:37.730Z,14.2
2022-09-11T07:27:52.983Z,14.2
2022-09-11T07:29:09.221Z,14.2
2022-09-11T07:30:25.466Z,14.2
2022-09-11T07:31:41.693Z,14.2
2022-09-11T07:32:56.971Z,14.2
2022-09-11T07:34:13.199Z,14.2
2022-09-11T07:35:29.445Z,14.1
2022-09-11T07:36:45.674Z,14.1
2022-09-11T07:38:01.913Z,14.1
2022-09-11T07:39:18.163Z,14.1
2022-09-11T07:40:34.403Z,14.1
2022-09-11T07:41:50.644Z,14.1
2022-09-11T07:43:06.882Z,14.1
2022-09-11T07:44:23.130Z,14.2
2022-09-11T07:45:39.370Z,14.2
2022-09-11T07:46:55.600Z,14.2
2022-09-11T07:48:11.847Z,14.2
2022-09-11T07:49:27.110Z,14.2
2022-09-11T07:50:43.335Z,14.3
2022-09-11T07:51:59.589Z,14.3
2022-09-11T07:53:15.822Z,14.4
2022-09-11T07:54:32.056Z,14.4
2022-09-11T07:55:48.305Z,14.4
2022-09-11T07:57:04.532Z,14.5
2022-09-11T07:58:20.783Z,14.4
2022-09-11T07:59:37.026Z,14.4
2022-09-11T08:00:53.256Z,14.5
2022-09-11T08:02:09.499Z,14.5
2022-09-11T08:03:25.751Z,14.5
2022-09-11T08:04:41.989Z,14.6
2022-09-11T08:05:57.239Z,14.6
2022-09-11T08:07:13.470Z,14.7
2022-09-11T08:08:29.714Z,14.7
2022-09-11T08:09:45.964Z,14.7
2022-09-11T08:11:02.205Z,14.8
2022-09-11T08:12:18.442Z,14.7
2022-09-11T08:13:34.671Z,14.7
2022-09-11T08:14:50.918Z,14.7
2022-09-11T08:16:07.167Z,14.7
2022-09-11T08:17:23.399Z,14.8
2022-09-11T08:18:39.637Z,14.8
2022-09-11T08:19:55.887Z,14.8
2022-09-11T08:22:28.371Z,14.9
2022-09-11T08:23:43.628Z,15
2022-09-11T08:24:59.857Z,15
2022-09-11T08:27:32.331Z,15
2022-09-11T08:28:48.577Z,15
2022-09-11T08:30:04.813Z,15
2022-09-11T08:32:37.293Z,15
2022-09-11T08:33:52.562Z,15
2022-09-11T08:35:07.814Z,15
2022-09-11T08:36:24.052Z,15
2022-09-11T08:37:40.297Z,15
2022-09-11T08:38:56.545Z,15.1
2022-09-11T08:40:12.768Z,15.1
2022-09-11T08:42:45.250Z,15.1
2022-09-11T08:44:01.496Z,15
2022-09-11T08:45:17.728Z,15
2022-09-11T08:46:33.976Z,15
2022-09-11T08:47:50.217Z,15.1
2022-09-11T08:49:06.448Z,15
2022-09-11T08:50:22.701Z,15
2022-09-11T08:51:37.960Z,15
2022-09-11T08:52:54.204Z,15
2022-09-11T08:54:10.433Z,15
2022-09-11T08:55:26.676Z,15.1
2022-09-11T08:56:42.908Z,15.1
2022-09-11T08:57:59.151Z,15.1
2022-09-11T08:59:15.390Z,15.2
2022-09-11T09:00:31.643Z,15.2
2022-09-11T09:01:46.906Z,15.2
2022-09-11T09:03:02.162Z,15.2
2022-09-11T09:04:18.386Z,15.2
2022-09-11T09:05:34.634Z,15.2
2022-09-11T09:06:50.862Z,15.3
2022-09-11T09:08:07.111Z,15.3
2022-09-11T09:09:23.351Z,15.3
2022-09-11T09:10:39.595Z,15.4
2022-09-11T09:13:12.079Z,15.3
2022-09-11T09:14:28.303Z,15.3
2022-09-11T09:15:44.561Z,15.4
2022-09-11T09:17:00.783Z,15.4
2022-09-11T09:18:17.031Z,15.5
2022-09-11T09:19:32.296Z,15.5
2022-09-11T09:20:48.536Z,15.5
2022-09-11T09:22:04.761Z,15.5
2022-09-11T09:23:21.004Z,15.5
2022-09-11T09:24:37.248Z,15.6
2022-09-11T09:25:53.483Z,15.7
2022-09-11T09:27:09.737Z,15.6
2022-09-11T09:28:25.973Z,15.7
2022-09-11T09:29:42.214Z,15.7
2022-09-11T09:30:58.452Z,15.7
2022-09-11T09:32:14.692Z,15.7
2022-09-11T09:33:30.928Z,15.7
2022-09-11T09:36:03.415Z,15.6
2022-09-11T09:37:18.668Z,15.7
2022-09-11T09:38:34.904Z,15.7
2022-09-11T09:39:51.145Z,15.7
2022-09-11T09:41:07.383Z,15.7
2022-09-11T09:42:23.618Z,15.8
2022-09-11T09:43:39.878Z,15.8
2022-09-11T09:44:56.104Z,15.8
2022-09-11T09:46:12.338Z,15.8
2022-09-11T09:47:28.588Z,15.7
2022-09-11T09:48:44.821Z,15.7
2022-09-11T09:50:01.072Z,15.7
2022-09-11T09:51:17.304Z,15.7
2022-09-11T09:52:33.560Z,15.7
2022-09-11T09:53:48.798Z,15.7
2022-09-11T09:55:05.048Z,15.7
2022-09-11T09:56:21.276Z,15.7
2022-09-11T09:57:37.529Z,15.6
2022-09-11T10:00:10.014Z,15.7
2022-09-11T10:01:26.236Z,15.7
2022-09-11T10:02:42.486Z,15.7
2022-09-11T10:03:58.721Z,15.7
2022-09-11T10:06:31.211Z,15.8
2022-09-11T10:07:47.457Z,15.8
2022-09-11T10:09:03.686Z,15.8
2022-09-11T10:10:18.951Z,15.8
2022-09-11T10:11:35.186Z,15.8
2022-09-11T10:12:51.429Z,15.8
2022-09-11T10:14:07.669Z,15.8
2022-09-11T10:15:23.910Z,15.8
2022-09-11T10:16:40.136Z,15.9
2022-09-11T10:17:56.390Z,15.8
2022-09-11T10:19:12.629Z,15.9
2022-09-11T10:20:28.864Z,15.9
2022-09-11T10:21:45.112Z,15.9
2022-09-11T10:23:01.350Z,15.9
2022-09-11T10:24:17.575Z,15.9
2022-09-11T10:25:33.818Z,16
2022-09-11T10:26:50.073Z,16
2022-09-11T10:28:05.329Z,16
2022-09-11T10:29:21.571Z,16
2022-09-11T10:30:37.805Z,16
2022-09-11T10:31:54.038Z,16
2022-09-11T10:33:10.289Z,16
2022-09-11T10:34:26.522Z,16.1
2022-09-11T10:36:59.008Z,16.1
2022-09-11T10:38:15.245Z,16
2022-09-11T10:39:31.490Z,16.1
2022-09-11T10:40:47.733Z,16.1
2022-09-11T10:42:03.954Z,16.2
2022-09-11T10:43:20.193Z,16.2
2022-09-11T10:44:36.445Z,16.1
2022-09-11T10:45:51.690Z,16.2
2022-09-11T10:47:07.934Z,16.2
2022-09-11T10:48:24.181Z,16.2
2022-09-11T10:49:40.411Z,16.2
2022-09-11T10:52:12.909Z,16.1
2022-09-11T10:53:29.130Z,16.1
2022-09-11T10:54:45.377Z,16.1
2022-09-11T10:56:01.614Z,16.1
2022-09-11T10:57:17.865Z,16.1
2022-09-11T10:58:34.093Z,16.2
2022-09-11T10:59:50.351Z,16.1
2022-09-11T11:01:06.580Z,16.1
2022-09-11T11:02:21.839Z,16.1
2022-09-11T11:04:54.308Z,16.1
2022-09-11T11:06:10.567Z,16.1
2022-09-11T11:07:26.800Z,16.1
2022-09-11T11:08:43.033Z,16.1
2022-09-11T11:09:59.268Z,16.1
2022-09-11T11:11:15.527Z,16.1
2022-09-11T11:12:31.757Z,16.1
2022-09-11T11:13:47.998Z,16.1
2022-09-11T11:15:04.236Z,16.1
2022-09-11T11:16:20.477Z,16
2022-09-11T11:17:36.720Z,16
2022-09-11T11:18:51.971Z,16.1
2022-09-11T11:20:08.210Z,16.1
2022-09-11T11:21:24.460Z,16
2022-09-11T11:22:40.693Z,16
2022-09-11T11:23:56.941Z,16
2022-09-11T11:25:13.175Z,15.9
2022-09-11T11:26:29.408Z,15.9
2022-09-11T11:27:45.662Z,15.9
2022-09-11T11:30:18.134Z,15.8
2022-09-11T11:31:34.386Z,15.7
2022-09-11T11:32:50.615Z,15.7
2022-09-11T11:34:06.865Z,15.8
2022-09-11T11:35:22.119Z,15.8
2022-09-11T11:37:54.591Z,15.9
2022-09-11T11:39:10.836Z,15.9
2022-09-11T11:40:27.070Z,15.9
2022-09-11T11:41:43.323Z,15.9
2022-09-11T11:42:59.552Z,15.9
2022-09-11T11:44:15.791Z,15.9
2022-09-11T11:45:32.038Z,15.9
2022-09-11T11:46:48.273Z,16
2022-09-11T11:48:03.532Z,15.9
2022-09-11T11:49:19.777Z,15.9
2022-09-11T11:50:36.025Z,15.9
2022-09-11T11:53:08.489Z,15.9
2022-09-11T11:54:23.767Z,15.9
2022-09-11T11:55:39.007Z,15.9
2022-09-11T11:56:55.254Z,16
2022-09-11T11:58:11.495Z,16.1
2022-09-11T11:59:27.740Z,16.2
2022-09-11T12:00:43.978Z,16.2
2022-09-11T12:02:00.214Z,16.3
2022-09-11T12:03:16.465Z,16.3
2022-09-11T12:04:32.695Z,16.4
2022-09-11T12:05:48.931Z,16.4
2022-09-11T12:07:05.184Z,16.5
2022-09-11T12:08:21.407Z,16.4
2022-09-11T12:09:36.679Z,16.4
2022-09-11T12:10:51.938Z,16.4
2022-09-11T12:12:08.181Z,16.4
2022-09-11T12:13:24.406Z,16.5
2022-09-11T12:14:40.653Z,16.6
2022-09-11T12:15:56.895Z,16.7
2022-09-11T12:17:13.137Z,16.8
2022-09-11T12:18:29.374Z,17
2022-09-11T12:19:45.610Z,17.1
2022-09-11T12:21:01.861Z,17
2022-09-11T12:22:18.084Z,17.1
2022-09-11T12:23:34.333Z,17.1
2022-09-11T12:24:50.583Z,17.1
2022-09-11T12:26:06.818Z,17.2
2022-09-11T12:27:22.073Z,17.2
2022-09-11T12:28:38.314Z,17.2
2022-09-11T12:31:10.785Z,17.2
2022-09-11T12:32:27.040Z,17.3
2022-09-11T12:33:43.281Z,17.3
2022-09-11T12:34:59.506Z,17.3
2022-09-11T12:36:15.744Z,17.3
2022-09-11T12:37:31.985Z,17.2
2022-09-11T12:38:48.227Z,17.2
2022-09-11T12:40:04.464Z,17.2
2022-09-11T12:42:36.949Z,17.3
2022-09-11T12:43:52.206Z,17.3
2022-09-11T12:45:08.452Z,17.4
2022-09-11T12:46:24.678Z,17.4
2022-09-11T12:47:40.918Z,17.4
2022-09-11T12:48:57.170Z,17.4
2022-09-11T12:50:13.401Z,17.5
2022-09-11T12:51:29.652Z,17.6
2022-09-11T12:52:45.887Z,17.8
2022-09-11T12:54:02.126Z,18
2022-09-11T12:55:18.363Z,18.2
2022-09-11T12:56:34.598Z,18.3
2022-09-11T12:57:50.840Z,18.3
2022-09-11T12:59:07.099Z,18.4
2022-09-11T13:00:23.336Z,18.5
2022-09-11T13:01:39.558Z,18.5
2022-09-11T13:02:54.835Z,18.6
2022-09-11T13:04:11.056Z,18.5
2022-09-11T13:05:27.311Z,18.6
2022-09-11T13:06:43.540Z,18.5
2022-09-11T13:07:59.789Z,18.5
2022-09-11T13:09:16.032Z,18.5
2022-09-11T13:10:32.260Z,18.5
2022-09-11T13:11:48.495Z,18.4
2022-09-11T13:13:04.735Z,18.5
2022-09-11T13:14:20.978Z,18.5
2022-09-11T13:16:53.465Z,18.6
2022-09-11T13:18:09.699Z,18.6
2022-09-11T13:19:24.971Z,18.7
2022-09-11T13:20:41.209Z,18.6
2022-09-11T13:21:57.440Z,18.7
2022-09-11T13:24:29.914Z,18.7
2022-09-11T13:27:02.409Z,18.6
2022-09-11T13:28:17.670Z,18.5
2022-09-11T13:29:33.905Z,18.6
2022-09-11T13:32:05.396Z,18.5
2022-09-11T13:34:37.879Z,18.5
2022-09-11T13:35:54.110Z,18.6
2022-09-11T13:37:10.364Z,18.6
2022-09-11T13:39:42.845Z,18.7
2022-09-11T13:40:59.070Z,18.7
2022-09-11T13:42:15.311Z,18.7
2022-09-11T13:44:47.804Z,18.8
2022-09-11T13:46:04.039Z,18.8
2022-09-11T13:47:20.274Z,18.9
2022-09-11T13:48:35.541Z,18.9
2022-09-11T13:49:50.791Z,19
2022-09-11T13:52:23.285Z,19.1
2022-09-11T13:53:39.519Z,19.1
2022-09-11T13:54:55.770Z,19.1
2022-09-11T13:56:12.005Z,19.2
2022-09-11T13:57:28.245Z,19.2
2022-09-11T14:00:00.725Z,19.1
2022-09-11T14:01:16.960Z,19.1
2022-09-11T14:02:33.206Z,19.1
2022-09-11T14:03:49.447Z,19.1
2022-09-11T14:05:05.679Z,19.1
2022-09-11T14:06:20.939Z,19.1
2022-09-11T14:07:37.187Z,19.2
2022-09-11T14:10:09.660Z,19.3
2022-09-11T14:11:25.896Z,19.4
2022-09-11T14:12:42.134Z,19.3
2022-09-11T14:13:58.370Z,19.3
2022-09-11T14:15:14.621Z,19.3
2022-09-11T14:16:30.858Z,19.2
2022-09-11T14:17:47.102Z,19.2
2022-09-11T14:19:03.342Z,19.2
2022-09-11T14:20:19.588Z,19.2
2022-09-11T14:21:35.811Z,19.2
2022-09-11T14:22:52.058Z,19.3
2022-09-11T14:24:07.324Z,19.2
2022-09-11T14:25:23.557Z,19.2
2022-09-11T14:26:38.810Z,19.2
2022-09-11T14:27:55.053Z,19.3
2022-09-11T14:29:10.318Z,19.3
2022-09-11T14:30:26.560Z,19.3
2022-09-11T14:32:59.025Z,19.4
2022-09-11T14:34:15.272Z,19.5
2022-09-11T14:35:31.521Z,19.5
2022-09-11T14:36:47.747Z,19.6
2022-09-11T14:38:04.004Z,19.6
2022-09-11T14:40:36.475Z,19.6
2022-09-11T14:41:52.705Z,19.7
2022-09-11T14:43:07.968Z,19.7
2022-09-11T14:44:23.223Z,19.6
2022-09-11T14:45:39.475Z,19.6
2022-09-11T14:48:11.962Z,19.6
2022-09-11T14:49:28.198Z,19.5
2022-09-11T14:50:44.431Z,19.5
2022-09-11T14:53:16.914Z,19.5
2022-09-11T14:55:49.385Z,19.4
2022-09-11T14:57:05.625Z,19.4
2022-09-11T14:58:21.876Z,19.5
2022-09-11T14:59:38.105Z,19.5
2022-09-11T15:00:54.352Z,19.5
2022-09-11T15:03:25.855Z,19.4
2022-09-11T15:04:42.087Z,19.4
2022-09-11T15:05:58.328Z,19.4
2022-09-11T15:08:30.818Z,19.4
2022-09-11T15:09:47.056Z,19.4
2022-09-11T15:11:03.282Z,19.4
2022-09-11T15:12:19.534Z,19.5
2022-09-11T15:13:35.771Z,19.5
2022-09-11T15:14:52.018Z,19.5
2022-09-11T15:16:08.247Z,19.6
2022-09-11T15:17:24.487Z,19.6
2022-09-11T15:18:40.725Z,19.6
2022-09-11T15:19:56.964Z,19.7
2022-09-11T15:21:12.223Z,19.7
2022-09-11T15:22:28.463Z,19.7
2022-09-11T15:23:44.717Z,19.8
2022-09-11T15:25:00.955Z,19.8
2022-09-11T15:26:17.197Z,19.8
2022-09-11T15:27:33.424Z,19.8
2022-09-11T15:28:49.672Z,19.8
2022-09-11T15:30:04.921Z,19.7
2022-09-11T15:31:20.195Z,19.8
2022-09-11T15:32:36.439Z,19.7
2022-09-11T15:33:52.661Z,19.7
2022-09-11T15:35:08.906Z,19.7
2022-09-11T15:36:25.150Z,19.7
2022-09-11T15:37:41.389Z,19.7
2022-09-11T15:38:57.634Z,19.8
2022-09-11T15:41:30.097Z,19.7
2022-09-11T15:42:46.338Z,19.7
2022-09-11T15:44:02.581Z,19.7
2022-09-11T15:45:18.837Z,19.7
2022-09-11T15:46:35.074Z,19.7
2022-09-11T15:49:06.556Z,19.7
2022-09-11T15:50:21.836Z,19.7
2022-09-11T15:51:38.068Z,19.7
2022-09-11T15:52:53.325Z,19.7
2022-09-11T15:54:09.567Z,19.7
2022-09-11T15:55:25.793Z,19.7
2022-09-11T15:56:42.044Z,19.7
2022-09-11T15:57:58.283Z,19.7
2022-09-11T15:59:14.517Z,19.7
2022-09-11T16:00:30.759Z,19.7
2022-09-11T16:01:47.008Z,19.7
2022-09-11T16:03:02.256Z,19.8
2022-09-11T16:04:18.507Z,19.8
2022-09-11T16:05:33.765Z,19.8
2022-09-11T16:06:49.027Z,19.8
2022-09-11T16:08:05.254Z,19.7
2022-09-11T16:09:21.510Z,19.7
2022-09-11T16:11:53.992Z,19.5
2022-09-11T16:13:10.226Z,19.5
2022-09-11T16:14:26.470Z,19.5
2022-09-11T16:15:42.711Z,19.4
2022-09-11T16:16:58.948Z,19.4
2022-09-11T16:19:31.432Z,19.4
2022-09-11T16:20:47.670Z,19.4
2022-09-11T16:22:02.933Z,19.4
2022-09-11T16:23:18.192Z,19.4
2022-09-11T16:24:34.428Z,19.3
2022-09-11T16:25:50.671Z,19.3
2022-09-11T16:27:06.907Z,19.3
2022-09-11T16:28:23.144Z,19.3
2022-09-11T16:29:39.383Z,19.3
2022-09-11T16:30:55.624Z,19.3
2022-09-11T16:32:11.864Z,19.2
2022-09-11T16:33:28.099Z,19.2
2022-09-11T16:34:44.341Z,19.2
2022-09-11T16:35:59.614Z,19.3
2022-09-11T16:37:14.864Z,19.2
2022-09-11T16:38:31.092Z,19.2
2022-09-11T16:39:47.348Z,19.2
2022-09-11T16:42:19.815Z,19.2
2022-09-11T16:44:52.305Z,19.2
2022-09-11T16:46:08.544Z,19.2
2022-09-11T16:47:24.772Z,19.2
2022-09-11T16:48:41.014Z,19.1
2022-09-11T16:49:57.256Z,19.1
2022-09-11T16:51:13.495Z,19.1
2022-09-11T16:52:28.768Z,19.1
2022-09-11T16:53:44.019Z,19.1
2022-09-11T16:55:00.268Z,19.1
2022-09-11T16:56:16.500Z,19
2022-09-11T16:57:32.732Z,18.9
2022-09-11T16:58:48.983Z,18.9
2022-09-11T17:00:05.226Z,18.8
2022-09-11T17:01:21.456Z,18.8
2022-09-11T17:02:37.708Z,18.9
2022-09-11T17:03:53.936Z,18.8
2022-09-11T17:05:10.182Z,18.9
2022-09-11T17:06:25.453Z,18.9
2022-09-11T17:07:40.701Z,18.9
2022-09-11T17:08:56.938Z,18.9
2022-09-11T17:10:13.176Z,18.9
2022-09-11T17:11:29.423Z,18.9
2022-09-11T17:12:45.664Z,18.9
2022-09-11T17:14:01.892Z,18.9
2022-09-11T17:15:18.137Z,18.9
2022-09-11T17:16:34.384Z,19
2022-09-11T17:17:50.617Z,18.9
2022-09-11T17:19:06.866Z,18.9
2022-09-11T17:20:22.123Z,18.9
2022-09-11T17:21:37.379Z,18.8
2022-09-11T17:22:53.625Z,18.8
2022-09-11T17:24:09.858Z,18.7
2022-09-11T17:25:26.092Z,18.7
2022-09-11T17:26:42.345Z,18.7
2022-09-11T17:27:58.572Z,18.6
2022-09-11T17:29:14.817Z,18.6
2022-09-11T17:30:31.048Z,18.5
2022-09-11T17:31:47.298Z,18.5
2022-09-11T17:33:03.532Z,18.5
2022-09-11T17:35:36.016Z,18.4
2022-09-11T17:38:08.506Z,18.3
2022-09-11T17:39:23.761Z,18.3
2022-09-11T17:40:39.993Z,18.3
2022-09-11T17:41:55.259Z,18.2
2022-09-11T17:43:11.493Z,18.2
2022-09-11T17:44:27.732Z,18.2
2022-09-11T17:45:43.969Z,18.2
2022-09-11T17:47:00.221Z,18.2
2022-09-11T17:48:16.452Z,18.2
2022-09-11T17:49:32.700Z,18.1
2022-09-11T17:50:48.936Z,18.1
2022-09-11T17:52:05.173Z,18.1
2022-09-11T17:53:20.445Z,18
2022-09-11T17:54:35.742Z,18
2022-09-11T17:55:52.001Z,18
2022-09-11T17:57:08.244Z,18
2022-09-11T17:58:24.539Z,18
2022-09-11T18:00:57.122Z,18
2022-09-11T18:02:13.409Z,17.9
2022-09-11T18:03:29.706Z,17.8
2022-09-11T18:06:02.299Z,17.6
2022-09-11T18:07:18.588Z,17.5
2022-09-11T18:08:34.885Z,17.5
2022-09-11T18:09:50.206Z,17.4
2022-09-11T18:11:05.522Z,17.4
2022-09-11T18:12:21.806Z,17.4
2022-09-11T18:13:38.098Z,17.4
2022-09-11T18:14:54.387Z,17.4
2022-09-11T18:16:10.683Z,17.4
2022-09-11T18:17:26.973Z,17.5
2022-09-11T18:18:43.286Z,17.5
2022-09-11T18:21:15.870Z,17.5
2022-09-11T18:22:32.165Z,17.4